createdAt,value
2022-10-23T00:02:39.680Z,91.80
2022-10-23T00:07:42.793Z,92.40
2022-10-23T00:12:47.860Z,92.70
2022-10-23T00:17:50.900Z,92.70
2022-10-23T00:22:53.923Z,92.90
2022-10-23T00:27:58.221Z,93.00
2022-10-23T00:33:01.233Z,92.90
2022-10-23T00:38:04.285Z,93.00
2022-10-23T00:43:17.909Z,93.00
2022-10-23T00:48:21.360Z,93.50
2022-10-23T00:53:24.983Z,93.60
2022-10-23T00:58:29.388Z,93.60
2022-10-23T01:03:32.988Z,93.60
2022-10-23T01:08:43.423Z,93.90
2022-10-23T01:13:56.271Z,94.10
2022-10-23T01:19:04.610Z,93.90
2022-10-23T01:24:14.508Z,93.80
2022-10-23T01:29:25.276Z,93.90
2022-10-23T01:34:33.364Z,94.10
2022-10-23T01:39:41.238Z,94.20
2022-10-23T01:44:48.488Z,94.30
2022-10-23T01:49:53.486Z,94.40
2022-10-23T01:55:00.596Z,94.70
2022-10-23T02:00:08.890Z,94.60
2022-10-23T02:05:16.950Z,94.90
2022-10-23T02:10:20.879Z,95.00
2022-10-23T02:15:32.895Z,95.20
2022-10-23T02:20:40.970Z,95.40
2022-10-23T02:25:48.671Z,95.50
2022-10-23T02:30:54.816Z,95.60
2022-10-23T02:35:58.240Z,95.50
2022-10-23T02:41:13.735Z,95.30
2022-10-23T02:46:25.034Z,95.10
2022-10-23T02:51:34.969Z,95.00
2022-10-23T02:56:43.195Z,94.90
2022-10-23T03:01:52.893Z,95.10
2022-10-23T03:06:56.919Z,94.90
2022-10-23T03:11:59.869Z,94.80
2022-10-23T03:17:04.750Z,95.00
2022-10-23T03:22:07.748Z,94.80
2022-10-23T03:27:11.390Z,94.90
2022-10-23T03:32:15.792Z,94.80
2022-10-23T03:37:18.881Z,95.10
2022-10-23T03:42:21.842Z,95.50
2022-10-23T03:47:26.203Z,95.50
2022-10-23T03:52:29.242Z,95.60
2022-10-23T03:57:32.237Z,95.70
2022-10-23T04:02:36.612Z,95.80
2022-10-23T04:07:39.547Z,96.00
2022-10-23T04:12:42.831Z,96.00
2022-10-23T04:17:47.290Z,95.90
2022-10-23T04:22:50.230Z,95.80
2022-10-23T04:27:53.179Z,95.80
2022-10-23T04:32:57.526Z,95.30
2022-10-23T04:38:00.466Z,94.80
2022-10-23T04:43:03.529Z,94.70
2022-10-23T04:48:07.999Z,94.80
2022-10-23T04:53:11.240Z,94.80
2022-10-23T04:58:14.181Z,95.20
2022-10-23T05:03:19.050Z,95.10
2022-10-23T05:08:22.142Z,94.60
2022-10-23T05:13:25.102Z,94.00
2022-10-23T05:18:33.284Z,93.40
2022-10-23T05:23:39.185Z,93.20
2022-10-23T05:28:42.133Z,93.00
2022-10-23T05:33:46.483Z,93.00
2022-10-23T05:38:49.486Z,93.40
2022-10-23T05:43:52.386Z,93.20
2022-10-23T05:48:56.544Z,93.80
2022-10-23T05:53:59.486Z,94.20
2022-10-23T05:59:02.475Z,94.00
2022-10-23T06:04:06.923Z,94.60
2022-10-23T06:09:09.879Z,94.40
2022-10-23T06:14:12.837Z,94.60
2022-10-23T06:19:17.226Z,94.90
2022-10-23T06:24:20.177Z,95.40
2022-10-23T06:29:23.372Z,95.70
2022-10-23T06:34:27.704Z,95.90
2022-10-23T06:39:32.168Z,95.90
2022-10-23T06:44:35.560Z,96.00
2022-10-23T06:49:39.874Z,96.20
2022-10-23T06:54:42.783Z,96.30
2022-10-23T06:59:45.739Z,96.40
2022-10-23T07:04:50.013Z,96.40
2022-10-23T07:09:53.002Z,96.40
2022-10-23T07:14:56.030Z,96.10
2022-10-23T07:20:00.331Z,96.00
2022-10-23T07:25:03.227Z,96.00
2022-10-23T07:30:07.062Z,95.90
2022-10-23T07:40:17.276Z,95.80
2022-10-23T07:45:20.213Z,95.40
2022-10-23T07:50:24.658Z,95.10
2022-10-23T07:55:27.673Z,95.20
2022-10-23T08:00:30.608Z,95.30
2022-10-23T08:05:34.944Z,95.40
2022-10-23T08:10:37.927Z,95.30
2022-10-23T08:15:41.218Z,95.30
2022-10-23T08:20:47.197Z,95.40
2022-10-23T08:25:50.134Z,95.40
2022-10-23T08:30:52.922Z,95.40
2022-10-23T08:35:57.255Z,95.50
2022-10-23T08:41:01.554Z,95.30
2022-10-23T08:46:09.559Z,95.00
2022-10-23T08:51:19.899Z,95.00
2022-10-23T08:56:28.703Z,94.90
2022-10-23T09:01:38.697Z,94.60
2022-10-23T09:06:50.739Z,94.50
2022-10-23T09:11:59.965Z,94.30
2022-10-23T09:22:19.741Z,94.30
2022-10-23T09:27:22.979Z,94.10
2022-10-23T09:32:36.993Z,93.80
2022-10-23T09:37:48.466Z,93.30
2022-10-23T09:42:53.867Z,93.10
2022-10-23T09:48:14.986Z,92.50
2022-10-23T09:53:33.734Z,91.70
2022-10-23T09:58:39.682Z,90.80
2022-10-23T10:03:51.105Z,90.20
2022-10-23T10:08:59.053Z,89.90
2022-10-23T10:14:28.896Z,89.10
2022-10-23T10:19:45.089Z,88.30
2022-10-23T10:24:54.228Z,87.00
2022-10-23T10:30:06.109Z,86.00
2022-10-23T10:35:21.026Z,84.00
2022-10-23T10:40:31.344Z,84.60
2022-10-23T10:45:38.594Z,84.50
2022-10-23T10:50:47.682Z,86.10
2022-10-23T10:55:54.872Z,85.50
2022-10-23T11:01:02.113Z,84.40
2022-10-23T11:06:07.241Z,84.00
2022-10-23T11:11:17.687Z,83.90
2022-10-23T11:16:25.019Z,84.20
2022-10-23T11:21:36.212Z,84.40
2022-10-23T11:26:53.055Z,84.30
2022-10-23T11:32:11.030Z,83.80
2022-10-23T11:37:18.596Z,81.20
2022-10-23T11:42:34.175Z,80.50
2022-10-23T11:47:40.599Z,79.80
2022-10-23T11:53:12.802Z,78.50
2022-10-23T11:58:32.534Z,78.90
2022-10-23T12:03:49.761Z,77.80
2022-10-23T12:08:57.406Z,76.30
2022-10-23T12:14:01.811Z,76.40
2022-10-23T12:19:20.270Z,75.20
2022-10-23T12:24:42.584Z,73.30
2022-10-23T12:30:00.745Z,72.30
2022-10-23T12:35:19.463Z,74.10
2022-10-23T12:40:29.987Z,75.50
2022-10-23T12:45:39.788Z,75.10
2022-10-23T12:50:51.460Z,76.10
2022-10-23T13:01:08.602Z,77.20
2022-10-23T13:06:13.236Z,76.40
2022-10-23T13:11:19.042Z,77.20
2022-10-23T13:16:25.276Z,77.00
2022-10-23T13:21:29.880Z,76.30
2022-10-23T13:26:35.913Z,76.70
2022-10-23T13:31:40.219Z,76.00
2022-10-23T13:36:53.724Z,76.20
2022-10-23T13:41:57.964Z,77.40
2022-10-23T13:47:02.375Z,77.40
2022-10-23T13:52:05.546Z,79.00
2022-10-23T13:57:14.716Z,79.30
2022-10-23T14:02:22.156Z,78.30
2022-10-23T14:07:25.180Z,78.30
2022-10-23T14:12:28.408Z,79.00
2022-10-23T14:17:32.793Z,79.30
2022-10-23T14:22:35.965Z,80.60
2022-10-23T14:27:39.138Z,80.40
2022-10-23T14:32:44.151Z,81.10
2022-10-23T14:37:47.908Z,81.60
2022-10-23T14:42:51.267Z,81.80
2022-10-23T14:47:55.587Z,82.00
2022-10-23T14:52:58.597Z,81.60
2022-10-23T14:58:01.608Z,82.40
2022-10-23T15:03:06.045Z,82.90
2022-10-23T15:08:09.325Z,83.50
2022-10-23T15:13:12.307Z,83.30
2022-10-23T15:18:19.615Z,83.50
2022-10-23T15:23:22.586Z,83.70
2022-10-23T15:28:25.966Z,84.00
2022-10-23T15:33:30.567Z,83.70
2022-10-23T15:38:33.909Z,83.90
2022-10-23T15:43:36.855Z,84.00
2022-10-23T15:48:41.248Z,83.90
2022-10-23T15:53:44.271Z,84.00
2022-10-23T15:58:47.239Z,84.40
2022-10-23T16:03:51.621Z,84.50
2022-10-23T16:14:03.165Z,85.30
2022-10-23T16:19:07.497Z,85.40
2022-10-23T16:24:11.555Z,85.10
2022-10-23T16:29:14.531Z,84.70
2022-10-23T16:34:19.534Z,84.60
2022-10-23T16:39:22.605Z,84.70
2022-10-23T16:44:26.521Z,84.20
2022-10-23T16:49:32.177Z,84.60
2022-10-23T16:54:35.464Z,84.20
2022-10-23T16:59:38.457Z,84.00
2022-10-23T17:04:42.789Z,83.30
2022-10-23T17:09:46.703Z,83.00
2022-10-23T17:14:49.708Z,82.00
2022-10-23T17:19:54.009Z,82.70
2022-10-23T17:24:57.134Z,82.50
2022-10-23T17:30:00.104Z,82.10
2022-10-23T17:35:05.704Z,82.60
2022-10-23T17:40:09.429Z,82.70
2022-10-23T17:45:12.639Z,82.80
2022-10-23T17:50:17.354Z,83.10
2022-10-23T17:55:20.412Z,82.40
2022-10-23T18:00:23.487Z,81.80
2022-10-23T18:05:28.037Z,81.30
2022-10-23T18:10:31.034Z,81.10
2022-10-23T18:15:35.521Z,81.20
2022-10-23T18:20:42.944Z,82.30
2022-10-23T18:25:46.299Z,82.00
2022-10-23T18:30:53.275Z,81.10
2022-10-23T18:36:00.435Z,80.40
2022-10-23T18:41:03.360Z,80.60
2022-10-23T18:46:06.898Z,81.00
2022-10-23T18:51:16.817Z,81.40
2022-10-23T18:56:23.528Z,82.00
2022-10-23T19:01:28.187Z,81.70
2022-10-23T19:06:33.480Z,81.10
2022-10-23T19:11:36.971Z,79.20
2022-10-23T19:16:44.041Z,78.70
2022-10-23T19:21:49.869Z,78.40
2022-10-23T19:26:53.148Z,77.80
2022-10-23T19:31:56.345Z,77.70
2022-10-23T19:37:00.774Z,77.50
2022-10-23T19:42:03.758Z,77.70
2022-10-23T19:47:06.931Z,78.50
2022-10-23T19:52:11.415Z,80.00
2022-10-23T19:57:14.985Z,80.50
2022-10-23T20:02:19.787Z,81.10
2022-10-23T20:07:24.316Z,81.30
2022-10-23T20:12:27.314Z,82.10
2022-10-23T20:17:30.206Z,81.70
2022-10-23T20:22:34.592Z,81.60
2022-10-23T20:32:45.783Z,81.90
2022-10-23T20:37:50.601Z,81.50
2022-10-23T20:42:53.605Z,81.30
2022-10-23T20:47:56.529Z,81.90
2022-10-23T20:53:00.827Z,82.30
2022-10-23T20:58:03.777Z,82.60
2022-10-23T21:03:06.687Z,82.70
2022-10-23T21:08:11.029Z,83.20
2022-10-23T21:13:14.245Z,83.20
2022-10-23T21:18:27.488Z,83.10
2022-10-23T21:23:42.674Z,83.30
2022-10-23T21:28:55.693Z,83.70
2022-10-23T21:39:18.754Z,83.30
2022-10-23T21:44:21.734Z,83.20
2022-10-23T21:49:24.710Z,82.80
2022-10-23T21:54:29.029Z,83.00
2022-10-23T21:59:34.814Z,83.80
2022-10-23T22:04:38.920Z,84.10
2022-10-23T22:09:43.650Z,84.30
2022-10-23T22:14:46.817Z,84.70
2022-10-23T22:19:49.791Z,85.40
2022-10-23T22:24:54.178Z,86.50
2022-10-23T22:29:58.518Z,86.20
2022-10-23T22:35:01.483Z,86.10
2022-10-23T22:40:07.429Z,86.30
2022-10-23T22:45:11.112Z,87.30
2022-10-23T22:50:14.399Z,86.50
2022-10-23T22:55:18.854Z,87.20
2022-10-23T23:00:21.867Z,86.50
2022-10-23T23:05:24.855Z,87.30
2022-10-23T23:10:29.167Z,87.50
2022-10-23T23:15:32.134Z,87.90
2022-10-23T23:20:35.401Z,88.10
2022-10-23T23:25:43.437Z,88.70
2022-10-23T23:35:54.318Z,89.40
2022-10-23T23:40:58.603Z,90.40
2022-10-23T23:46:01.594Z,90.50
2022-10-23T23:51:04.556Z,91.10
2022-10-23T23:56:09.006Z,90.90
